Terminal Aerodrome Forecast
Issued by NWS Lubbock, TX

Home | Current Version | Previous Version | Text Only | Print | Product List | Glossary On
Versions: 1 2 3 4 5 6 7 8 9 10 11 12 13 14 15 16 17 18 19 20 21 22 23 24 25 26 27 28 29 30 31 32 33 34 35
000
FTUS44 KLUB 162300
TAFLBB
TAF
KLBB 162324Z 1700/1724 19006KT P6SM VCSH FEW035 SCT100 OVC150
      TEMPO 1700/1703 -RA BKN030
     FM170600 22006KT P6SM OVC010
     FM171500 22006KT P6SM BKN015 OVC030 PROB30 1715/1721 6SM -TSRA
      OVC015CB
     FM172100 VRB06KT P6SM BKN015 OVC030 PROB30 1721/1724 6SM -TSRA
      OVC015CB=

USA.gov is the U.S. government's official web portal to all federal, state and local government web resources and services.